sensor_id;sensor_type;location;lat;lon;timestamp;pressure;altitude;pressure_sealevel;temperature;humidity
5380;BME280;2713;42.680;23.310;2024-03-17T00:01:54;95313.75;;;11.45;66.42
5380;BME280;2713;42.680;23.310;2024-03-17T00:04:20;95316.34;;;11.45;66.55
5380;BME280;2713;42.680;23.310;2024-03-17T00:06:47;95309.88;;;11.41;66.67
5380;BME280;2713;42.680;23.310;2024-03-17T00:09:13;95315.50;;;11.30;66.57
5380;BME280;2713;42.680;23.310;2024-03-17T00:11:41;95315.97;;;11.19;67.32
5380;BME280;2713;42.680;23.310;2024-03-17T00:14:07;95321.31;;;11.40;66.54
5380;BME280;2713;42.680;23.310;2024-03-17T00:16:35;95316.25;;;11.39;66.43
5380;BME280;2713;42.680;23.310;2024-03-17T00:19:01;95315.44;;;11.38;66.62
5380;BME280;2713;42.680;23.310;2024-03-17T00:21:28;95302.41;;;11.09;67.55
5380;BME280;2713;42.680;23.310;2024-03-17T00:23:54;95315.19;;;11.33;66.79
5380;BME280;2713;42.680;23.310;2024-03-17T00:26:22;95317.78;;;11.33;66.86
5380;BME280;2713;42.680;23.310;2024-03-17T00:28:48;95313.19;;;11.35;66.28
5380;BME280;2713;42.680;23.310;2024-03-17T00:31:16;95314.78;;;11.22;66.94
5380;BME280;2713;42.680;23.310;2024-03-17T00:33:44;95314.38;;;11.33;65.92
5380;BME280;2713;42.680;23.310;2024-03-17T00:36:12;95298.78;;;11.10;66.77
5380;BME280;2713;42.680;23.310;2024-03-17T00:38:37;95294.94;;;11.06;67.02
5380;BME280;2713;42.680;23.310;2024-03-17T00:41:04;95300.97;;;11.21;66.70
5380;BME280;2713;42.680;23.310;2024-03-17T00:43:31;95310.16;;;10.94;67.46
5380;BME280;2713;42.680;23.310;2024-03-17T00:45:58;95286.59;;;11.10;66.91
5380;BME280;2713;42.680;23.310;2024-03-17T00:48:24;95310.88;;;11.03;67.46
5380;BME280;2713;42.680;23.310;2024-03-17T00:50:56;95313.63;;;11.24;66.77
5380;BME280;2713;42.680;23.310;2024-03-17T00:53:22;95316.41;;;11.37;66.16
5380;BME280;2713;42.680;23.310;2024-03-17T00:55:52;95307.94;;;11.43;65.86
5380;BME280;2713;42.680;23.310;2024-03-17T00:58:19;95310.44;;;11.51;65.60
5380;BME280;2713;42.680;23.310;2024-03-17T01:00:45;95291.38;;;11.22;65.57
5380;BME280;2713;42.680;23.310;2024-03-17T01:03:13;95318.81;;;11.24;66.47
5380;BME280;2713;42.680;23.310;2024-03-17T01:05:40;95308.78;;;11.21;66.58
5380;BME280;2713;42.680;23.310;2024-03-17T01:08:09;95311.47;;;11.28;66.28
5380;BME280;2713;42.680;23.310;2024-03-17T01:10:39;95312.72;;;11.17;66.71
5380;BME280;2713;42.680;23.310;2024-03-17T01:13:05;95313.53;;;11.17;66.75
5380;BME280;2713;42.680;23.310;2024-03-17T01:15:34;95312.19;;;11.22;66.39
5380;BME280;2713;42.680;23.310;2024-03-17T01:17:59;95316.13;;;11.17;66.57
5380;BME280;2713;42.680;23.310;2024-03-17T01:20:26;95317.22;;;11.23;66.59
5380;BME280;2713;42.680;23.310;2024-03-17T01:22:52;95322.28;;;11.02;67.03
5380;BME280;2713;42.680;23.310;2024-03-17T01:25:20;95319.59;;;11.10;66.80
5380;BME280;2713;42.680;23.310;2024-03-17T01:27:46;95314.13;;;11.05;67.09
5380;BME280;2713;42.680;23.310;2024-03-17T01:30:13;95312.91;;;10.93;67.53
5380;BME280;2713;42.680;23.310;2024-03-17T01:32:39;95308.56;;;11.08;67.01
5380;BME280;2713;42.680;23.310;2024-03-17T01:35:07;95317.19;;;11.08;66.98
5380;BME280;2713;42.680;23.310;2024-03-17T01:37:33;95310.97;;;10.95;67.29
5380;BME280;2713;42.680;23.310;2024-03-17T01:40:00;95310.31;;;10.93;67.20
5380;BME280;2713;42.680;23.310;2024-03-17T01:42:27;95311.44;;;11.13;66.63
5380;BME280;2713;42.680;23.310;2024-03-17T01:44:55;95306.78;;;11.08;66.78
5380;BME280;2713;42.680;23.310;2024-03-17T01:47:21;95312.09;;;11.15;66.30
5380;BME280;2713;42.680;23.310;2024-03-17T01:49:49;95315.41;;;11.09;66.75
5380;BME280;2713;42.680;23.310;2024-03-17T01:52:15;95308.00;;;10.98;67.17
5380;BME280;2713;42.680;23.310;2024-03-17T01:54:43;95311.69;;;10.89;67.68
5380;BME280;2713;42.680;23.310;2024-03-17T01:57:09;95313.38;;;10.96;67.31
5380;BME280;2713;42.680;23.310;2024-03-17T01:59:38;95312.28;;;10.91;67.29
5380;BME280;2713;42.680;23.310;2024-03-17T02:02:05;95308.63;;;11.00;66.88
5380;BME280;2713;42.680;23.310;2024-03-17T02:04:31;95299.78;;;10.72;67.33
5380;BME280;2713;42.680;23.310;2024-03-17T02:06:57;95307.91;;;10.91;67.42
5380;BME280;2713;42.680;23.310;2024-03-17T02:09:24;95304.09;;;11.02;66.91
5380;BME280;2713;42.680;23.310;2024-03-17T02:11:51;95309.63;;;10.99;67.13
5380;BME280;2713;42.680;23.310;2024-03-17T02:14:17;95314.03;;;10.98;67.25
5380;BME280;2713;42.680;23.310;2024-03-17T02:16:44;95310.97;;;10.95;67.04
5380;BME280;2713;42.680;23.310;2024-03-17T02:19:11;95310.56;;;11.06;66.58
5380;BME280;2713;42.680;23.310;2024-03-17T02:21:37;95310.38;;;11.07;66.64
5380;BME280;2713;42.680;23.310;2024-03-17T02:24:07;95288.44;;;10.87;66.98
5380;BME280;2713;42.680;23.310;2024-03-17T02:26:33;95310.63;;;10.98;67.02
5380;BME280;2713;42.680;23.310;2024-03-17T02:29:01;95307.16;;;10.83;67.63
5380;BME280;2713;42.680;23.310;2024-03-17T02:34:15;95305.72;;;10.80;67.58
5380;BME280;2713;42.680;23.310;2024-03-17T02:36:42;95301.84;;;10.76;67.68
5380;BME280;2713;42.680;23.310;2024-03-17T02:39:09;95312.66;;;10.65;68.13
5380;BME280;2713;42.680;23.310;2024-03-17T02:41:53;95291.69;;;10.66;67.83
5380;BME280;2713;42.680;23.310;2024-03-17T02:44:20;95303.63;;;10.76;67.76
5380;BME280;2713;42.680;23.310;2024-03-17T02:46:47;95299.59;;;10.73;67.64
5380;BME280;2713;42.680;23.310;2024-03-17T02:49:14;95300.47;;;10.65;67.95
5380;BME280;2713;42.680;23.310;2024-03-17T02:51:43;95292.19;;;10.62;67.86
5380;BME280;2713;42.680;23.310;2024-03-17T02:54:11;95291.97;;;10.72;67.57
5380;BME280;2713;42.680;23.310;2024-03-17T02:56:38;95297.00;;;10.50;68.46
5380;BME280;2713;42.680;23.310;2024-03-17T02:59:05;95297.75;;;10.59;68.02
5380;BME280;2713;42.680;23.310;2024-03-17T03:01:32;95297.97;;;10.49;68.36
5380;BME280;2713;42.680;23.310;2024-03-17T03:04:00;95295.69;;;10.54;68.11
5380;BME280;2713;42.680;23.310;2024-03-17T03:06:26;95295.72;;;10.46;68.10
5380;BME280;2713;42.680;23.310;2024-03-17T03:08:53;95286.47;;;10.66;67.91
5380;BME280;2713;42.680;23.310;2024-03-17T03:11:21;95287.75;;;10.71;67.18
5380;BME280;2713;42.680;23.310;2024-03-17T03:13:48;95289.13;;;10.81;66.71
5380;BME280;2713;42.680;23.310;2024-03-17T03:16:15;95292.44;;;10.75;66.84
5380;BME280;2713;42.680;23.310;2024-03-17T03:18:43;95298.88;;;10.79;66.77
5380;BME280;2713;42.680;23.310;2024-03-17T03:21:11;95281.28;;;10.66;66.59
5380;BME280;2713;42.680;23.310;2024-03-17T03:23:38;95290.97;;;10.73;66.77
5380;BME280;2713;42.680;23.310;2024-03-17T03:26:05;95292.31;;;10.68;67.07
5380;BME280;2713;42.680;23.310;2024-03-17T03:28:35;95298.09;;;10.79;66.47
5380;BME280;2713;42.680;23.310;2024-03-17T03:31:02;95303.13;;;10.80;66.30
5380;BME280;2713;42.680;23.310;2024-03-17T03:33:29;95299.34;;;10.83;66.25
5380;BME280;2713;42.680;23.310;2024-03-17T03:35:56;95302.84;;;10.75;66.43
5380;BME280;2713;42.680;23.310;2024-03-17T03:38:23;95300.53;;;10.57;67.17
5380;BME280;2713;42.680;23.310;2024-03-17T03:40:50;95302.13;;;10.58;67.51
5380;BME280;2713;42.680;23.310;2024-03-17T03:43:18;95304.91;;;10.57;67.56
5380;BME280;2713;42.680;23.310;2024-03-17T03:45:46;95306.47;;;10.66;67.21
5380;BME280;2713;42.680;23.310;2024-03-17T03:48:13;95310.84;;;10.65;66.89
5380;BME280;2713;42.680;23.310;2024-03-17T03:50:39;95315.59;;;10.39;67.70
5380;BME280;2713;42.680;23.310;2024-03-17T03:53:06;95308.09;;;10.44;67.28
5380;BME280;2713;42.680;23.310;2024-03-17T03:55:33;95313.16;;;10.38;67.39
5380;BME280;2713;42.680;23.310;2024-03-17T03:58:00;95314.97;;;10.37;67.42
5380;BME280;2713;42.680;23.310;2024-03-17T04:00:29;95324.75;;;10.27;67.75
5380;BME280;2713;42.680;23.310;2024-03-17T04:02:59;95316.03;;;10.20;67.95
5380;BME280;2713;42.680;23.310;2024-03-17T04:05:27;95331.75;;;10.27;67.28
5380;BME280;2713;42.680;23.310;2024-03-17T04:07:54;95320.41;;;10.20;67.53
5380;BME280;2713;42.680;23.310;2024-03-17T04:10:20;95326.91;;;10.15;67.78
5380;BME280;2713;42.680;23.310;2024-03-17T04:12:48;95334.50;;;10.25;67.50
5380;BME280;2713;42.680;23.310;2024-03-17T04:15:15;95322.69;;;10.14;67.66
5380;BME280;2713;42.680;23.310;2024-03-17T04:17:42;95341.06;;;10.05;67.98
5380;BME280;2713;42.680;23.310;2024-03-17T04:20:11;95335.34;;;10.17;67.86
5380;BME280;2713;42.680;23.310;2024-03-17T04:22:39;95335.44;;;10.32;67.33
5380;BME280;2713;42.680;23.310;2024-03-17T04:25:06;95339.19;;;10.30;66.98
5380;BME280;2713;42.680;23.310;2024-03-17T04:27:34;95338.88;;;10.25;67.33
5380;BME280;2713;42.680;23.310;2024-03-17T04:30:01;95343.59;;;10.21;67.57
5380;BME280;2713;42.680;23.310;2024-03-17T04:32:31;95343.22;;;10.32;66.83
5380;BME280;2713;42.680;23.310;2024-03-17T04:34:57;95350.34;;;10.38;66.77
5380;BME280;2713;42.680;23.310;2024-03-17T04:37:26;95352.59;;;10.41;66.88
5380;BME280;2713;42.680;23.310;2024-03-17T04:39:53;95349.09;;;10.34;66.69
5380;BME280;2713;42.680;23.310;2024-03-17T04:42:23;95362.06;;;10.34;66.78
5380;BME280;2713;42.680;23.310;2024-03-17T04:44:49;95356.56;;;10.29;66.94
5380;BME280;2713;42.680;23.310;2024-03-17T04:47:16;95355.25;;;10.33;66.87
5380;BME280;2713;42.680;23.310;2024-03-17T04:49:44;95365.09;;;10.38;66.99
5380;BME280;2713;42.680;23.310;2024-03-17T04:52:11;95367.91;;;10.36;67.12
5380;BME280;2713;42.680;23.310;2024-03-17T04:54:40;95369.41;;;10.31;67.42
5380;BME280;2713;42.680;23.310;2024-03-17T04:57:08;95372.75;;;10.39;67.23
5380;BME280;2713;42.680;23.310;2024-03-17T04:59:35;95379.09;;;10.37;67.18
5380;BME280;2713;42.680;23.310;2024-03-17T05:02:04;95386.44;;;10.33;67.12
5380;BME280;2713;42.680;23.310;2024-03-17T05:04:30;95382.38;;;10.31;67.40
5380;BME280;2713;42.680;23.310;2024-03-17T05:06:57;95381.09;;;10.27;67.20
5380;BME280;2713;42.680;23.310;2024-03-17T05:09:24;95391.97;;;10.30;67.38
5380;BME280;2713;42.680;23.310;2024-03-17T05:11:52;95384.03;;;10.24;67.80
5380;BME280;2713;42.680;23.310;2024-03-17T05:14:19;95393.06;;;10.36;67.82
5380;BME280;2713;42.680;23.310;2024-03-17T05:16:48;95401.19;;;10.33;67.60
5380;BME280;2713;42.680;23.310;2024-03-17T05:19:15;95398.75;;;10.31;67.77
5380;BME280;2713;42.680;23.310;2024-03-17T05:21:43;95396.16;;;10.31;67.94
5380;BME280;2713;42.680;23.310;2024-03-17T05:24:10;95404.03;;;10.54;68.01
5380;BME280;2713;42.680;23.310;2024-03-17T05:26:37;95396.63;;;10.35;68.41
5380;BME280;2713;42.680;23.310;2024-03-17T05:29:05;95402.75;;;10.50;68.23
5380;BME280;2713;42.680;23.310;2024-03-17T05:31:32;95401.84;;;10.65;67.55
5380;BME280;2713;42.680;23.310;2024-03-17T05:33:59;95391.63;;;10.64;67.44
5380;BME280;2713;42.680;23.310;2024-03-17T05:36:26;95400.16;;;10.73;67.66
5380;BME280;2713;42.680;23.310;2024-03-17T05:38:58;95406.66;;;10.77;67.44
5380;BME280;2713;42.680;23.310;2024-03-17T05:41:25;95405.38;;;10.73;67.61
5380;BME280;2713;42.680;23.310;2024-03-17T05:43:53;95403.47;;;10.89;67.21
5380;BME280;2713;42.680;23.310;2024-03-17T05:46:25;95404.38;;;10.82;67.14
5380;BME280;2713;42.680;23.310;2024-03-17T05:48:53;95405.97;;;10.83;67.59
5380;BME280;2713;42.680;23.310;2024-03-17T05:51:20;95396.59;;;10.74;67.77
5380;BME280;2713;42.680;23.310;2024-03-17T05:53:47;95403.31;;;10.91;67.39
5380;BME280;2713;42.680;23.310;2024-03-17T05:56:14;95400.13;;;11.03;66.58
5380;BME280;2713;42.680;23.310;2024-03-17T05:58:42;95394.34;;;10.93;67.00
5380;BME280;2713;42.680;23.310;2024-03-17T06:01:09;95401.91;;;11.03;66.74
5380;BME280;2713;42.680;23.310;2024-03-17T06:03:38;95408.41;;;11.07;66.91
5380;BME280;2713;42.680;23.310;2024-03-17T06:06:05;95400.09;;;11.11;66.84
5380;BME280;2713;42.680;23.310;2024-03-17T06:08:35;95407.50;;;11.23;66.30
5380;BME280;2713;42.680;23.310;2024-03-17T06:11:03;95410.47;;;11.34;65.68
5380;BME280;2713;42.680;23.310;2024-03-17T06:13:30;95412.59;;;11.53;65.24
5380;BME280;2713;42.680;23.310;2024-03-17T06:15:57;95410.91;;;11.60;65.06
5380;BME280;2713;42.680;23.310;2024-03-17T06:18:27;95417.03;;;11.67;64.58
5380;BME280;2713;42.680;23.310;2024-03-17T06:20:55;95417.19;;;11.66;64.30
5380;BME280;2713;42.680;23.310;2024-03-17T06:23:23;95421.09;;;11.47;65.14
5380;BME280;2713;42.680;23.310;2024-03-17T06:25:52;95417.72;;;11.61;64.94
5380;BME280;2713;42.680;23.310;2024-03-17T06:28:21;95417.88;;;11.83;64.59
5380;BME280;2713;42.680;23.310;2024-03-17T06:30:55;95414.03;;;12.23;63.57
5380;BME280;2713;42.680;23.310;2024-03-17T06:33:25;95427.13;;;12.58;61.70
5380;BME280;2713;42.680;23.310;2024-03-17T06:35:55;95436.09;;;12.70;60.55
5380;BME280;2713;42.680;23.310;2024-03-17T06:38:22;95431.56;;;12.94;60.41
5380;BME280;2713;42.680;23.310;2024-03-17T06:40:50;95436.63;;;12.81;60.43
5380;BME280;2713;42.680;23.310;2024-03-17T06:43:17;95442.03;;;12.79;60.18
5380;BME280;2713;42.680;23.310;2024-03-17T06:45:53;95434.91;;;13.24;59.00
5380;BME280;2713;42.680;23.310;2024-03-17T06:48:20;95436.03;;;13.63;57.89
5380;BME280;2713;42.680;23.310;2024-03-17T06:50:47;95440.13;;;13.94;56.44
5380;BME280;2713;42.680;23.310;2024-03-17T06:53:15;95438.41;;;13.80;56.53
5380;BME280;2713;42.680;23.310;2024-03-17T06:55:43;95442.50;;;13.67;56.94
5380;BME280;2713;42.680;23.310;2024-03-17T06:58:11;95439.03;;;13.60;57.35
5380;BME280;2713;42.680;23.310;2024-03-17T07:00:38;95440.06;;;13.59;57.06
5380;BME280;2713;42.680;23.310;2024-03-17T07:03:05;95448.81;;;13.52;57.08
5380;BME280;2713;42.680;23.310;2024-03-17T07:05:32;95430.59;;;13.58;60.58
5380;BME280;2713;42.680;23.310;2024-03-17T07:07:59;95440.06;;;13.59;57.40
5380;BME280;2713;42.680;23.310;2024-03-17T07:10:27;95444.13;;;13.68;56.79
5380;BME280;2713;42.680;23.310;2024-03-17T07:12:54;95436.97;;;13.77;56.63
5380;BME280;2713;42.680;23.310;2024-03-17T07:15:22;95438.53;;;13.71;56.77
5380;BME280;2713;42.680;23.310;2024-03-17T07:17:50;95427.97;;;13.80;56.58
5380;BME280;2713;42.680;23.310;2024-03-17T07:20:17;95427.81;;;14.22;55.55
5380;BME280;2713;42.680;23.310;2024-03-17T07:22:44;95436.34;;;14.03;55.64
5380;BME280;2713;42.680;23.310;2024-03-17T07:25:11;95433.88;;;13.95;55.94
5380;BME280;2713;42.680;23.310;2024-03-17T07:27:39;95432.31;;;13.73;56.82
5380;BME280;2713;42.680;23.310;2024-03-17T07:30:07;95439.47;;;13.64;57.90
5380;BME280;2713;42.680;23.310;2024-03-17T07:32:34;95439.78;;;13.12;58.03
5380;BME280;2713;42.680;23.310;2024-03-17T07:35:01;95441.97;;;13.30;58.56
5380;BME280;2713;42.680;23.310;2024-03-17T07:37:29;95436.31;;;13.47;58.09
5380;BME280;2713;42.680;23.310;2024-03-17T07:39:56;95439.75;;;13.48;57.73
5380;BME280;2713;42.680;23.310;2024-03-17T07:42:26;95436.44;;;13.39;57.52
5380;BME280;2713;42.680;23.310;2024-03-17T07:44:54;95439.13;;;13.46;57.67
5380;BME280;2713;42.680;23.310;2024-03-17T07:47:21;95441.81;;;13.52;57.49
5380;BME280;2713;42.680;23.310;2024-03-17T07:49:48;95438.75;;;13.49;57.78
5380;BME280;2713;42.680;23.310;2024-03-17T07:52:14;95421.50;;;13.12;58.27
5380;BME280;2713;42.680;23.310;2024-03-17T07:54:41;95448.69;;;13.17;58.20
5380;BME280;2713;42.680;23.310;2024-03-17T07:57:08;95440.00;;;12.96;58.70
5380;BME280;2713;42.680;23.310;2024-03-17T07:59:35;95435.88;;;12.87;58.68
5380;BME280;2713;42.680;23.310;2024-03-17T08:02:03;95443.78;;;12.93;58.57
5380;BME280;2713;42.680;23.310;2024-03-17T08:04:30;95434.72;;;12.75;58.85
5380;BME280;2713;42.680;23.310;2024-03-17T08:06:57;95433.91;;;12.89;58.45
5380;BME280;2713;42.680;23.310;2024-03-17T08:09:24;95440.50;;;13.06;58.23
5380;BME280;2713;42.680;23.310;2024-03-17T08:11:52;95421.50;;;12.91;58.02
5380;BME280;2713;42.680;23.310;2024-03-17T08:14:19;95439.25;;;13.16;58.09
5380;BME280;2713;42.680;23.310;2024-03-17T08:16:45;95441.75;;;13.25;57.77
5380;BME280;2713;42.680;23.310;2024-03-17T08:19:13;95435.47;;;13.04;58.09
5380;BME280;2713;42.680;23.310;2024-03-17T08:21:39;95428.00;;;13.01;58.18
5380;BME280;2713;42.680;23.310;2024-03-17T08:24:06;95430.47;;;13.24;58.16
5380;BME280;2713;42.680;23.310;2024-03-17T08:26:33;95435.34;;;13.27;56.91
5380;BME280;2713;42.680;23.310;2024-03-17T08:29:00;95425.22;;;13.39;56.56
5380;BME280;2713;42.680;23.310;2024-03-17T08:31:27;95429.59;;;13.17;58.00
5380;BME280;2713;42.680;23.310;2024-03-17T08:33:54;95427.25;;;13.43;57.04
5380;BME280;2713;42.680;23.310;2024-03-17T08:36:22;95428.81;;;13.87;56.36
5380;BME280;2713;42.680;23.310;2024-03-17T08:38:50;95421.41;;;14.25;54.59
5380;BME280;2713;42.680;23.310;2024-03-17T08:41:17;95416.16;;;14.59;53.31
5380;BME280;2713;42.680;23.310;2024-03-17T08:43:43;95417.38;;;14.56;53.03
5380;BME280;2713;42.680;23.310;2024-03-17T08:46:11;95419.06;;;14.77;52.54
5380;BME280;2713;42.680;23.310;2024-03-17T08:48:40;95414.81;;;14.76;52.26
5380;BME280;2713;42.680;23.310;2024-03-17T08:51:08;95409.72;;;15.35;51.64
5380;BME280;2713;42.680;23.310;2024-03-17T08:53:37;95403.34;;;15.57;50.47
5380;BME280;2713;42.680;23.310;2024-03-17T08:56:06;95396.88;;;15.53;50.49
5380;BME280;2713;42.680;23.310;2024-03-17T08:58:34;95396.47;;;15.50;51.08
5380;BME280;2713;42.680;23.310;2024-03-17T09:01:04;95392.44;;;15.47;51.63
5380;BME280;2713;42.680;23.310;2024-03-17T09:03:32;95395.06;;;15.60;51.48
5380;BME280;2713;42.680;23.310;2024-03-17T09:05:59;95391.44;;;15.75;51.20
5380;BME280;2713;42.680;23.310;2024-03-17T09:08:26;95387.41;;;15.65;51.24
5380;BME280;2713;42.680;23.310;2024-03-17T09:10:55;95393.81;;;16.15;50.21
5380;BME280;2713;42.680;23.310;2024-03-17T09:13:23;95389.66;;;16.59;49.34
5380;BME280;2713;42.680;23.310;2024-03-17T09:15:52;95379.69;;;16.81;48.34
5380;BME280;2713;42.680;23.310;2024-03-17T09:18:19;95378.63;;;16.82;48.39
5380;BME280;2713;42.680;23.310;2024-03-17T09:20:55;95375.06;;;17.07;48.03
5380;BME280;2713;42.680;23.310;2024-03-17T09:23:22;95372.53;;;17.26;47.26
5380;BME280;2713;42.680;23.310;2024-03-17T09:25:56;95355.97;;;17.25;46.40
5380;BME280;2713;42.680;23.310;2024-03-17T09:28:23;95361.09;;;17.13;46.76
5380;BME280;2713;42.680;23.310;2024-03-17T09:30:50;95355.81;;;16.82;47.42
5380;BME280;2713;42.680;23.310;2024-03-17T09:33:19;95361.72;;;17.09;46.93
5380;BME280;2713;42.680;23.310;2024-03-17T09:35:52;95346.63;;;16.66;47.28
5380;BME280;2713;42.680;23.310;2024-03-17T09:38:18;95344.22;;;16.58;47.74
5380;BME280;2713;42.680;23.310;2024-03-17T09:40:46;95345.03;;;16.97;46.95
5380;BME280;2713;42.680;23.310;2024-03-17T09:43:14;95343.47;;;17.20;45.47
5380;BME280;2713;42.680;23.310;2024-03-17T09:45:43;95346.72;;;17.16;44.27
5380;BME280;2713;42.680;23.310;2024-03-17T09:48:14;95350.84;;;17.05;44.76
5380;BME280;2713;42.680;23.310;2024-03-17T09:50:41;95340.56;;;17.04;42.47
5380;BME280;2713;42.680;23.310;2024-03-17T09:53:12;95341.31;;;17.11;43.23
5380;BME280;2713;42.680;23.310;2024-03-17T09:55:42;95340.22;;;16.94;44.21
5380;BME280;2713;42.680;23.310;2024-03-17T09:58:15;95345.78;;;16.72;44.02
5380;BME280;2713;42.680;23.310;2024-03-17T10:00:43;95340.16;;;16.69;42.79
5380;BME280;2713;42.680;23.310;2024-03-17T10:03:11;95338.75;;;16.66;43.09
5380;BME280;2713;42.680;23.310;2024-03-17T10:05:38;95341.09;;;16.81;43.63
5380;BME280;2713;42.680;23.310;2024-03-17T10:08:05;95344.16;;;16.71;43.77
5380;BME280;2713;42.680;23.310;2024-03-17T10:10:34;95339.78;;;16.52;43.56
5380;BME280;2713;42.680;23.310;2024-03-17T10:13:01;95342.75;;;16.18;43.87
5380;BME280;2713;42.680;23.310;2024-03-17T10:15:29;95342.47;;;16.39;43.27
5380;BME280;2713;42.680;23.310;2024-03-17T10:17:56;95338.44;;;16.43;43.26
5380;BME280;2713;42.680;23.310;2024-03-17T10:20:24;95341.84;;;16.37;42.54
5380;BME280;2713;42.680;23.310;2024-03-17T10:22:58;95338.88;;;16.27;43.94
5380;BME280;2713;42.680;23.310;2024-03-17T10:25:24;95343.94;;;16.22;43.30
5380;BME280;2713;42.680;23.310;2024-03-17T10:27:52;95335.53;;;16.00;42.34
5380;BME280;2713;42.680;23.310;2024-03-17T10:30:19;95348.81;;;16.12;39.47
5380;BME280;2713;42.680;23.310;2024-03-17T10:32:53;95341.16;;;16.04;39.60
5380;BME280;2713;42.680;23.310;2024-03-17T10:35:27;95346.25;;;15.99;41.42
5380;BME280;2713;42.680;23.310;2024-03-17T10:37:55;95339.38;;;15.98;39.82
5380;BME280;2713;42.680;23.310;2024-03-17T10:40:24;95338.78;;;16.02;38.41
5380;BME280;2713;42.680;23.310;2024-03-17T10:42:51;95313.59;;;15.88;38.14
5380;BME280;2713;42.680;23.310;2024-03-17T10:45:18;95330.28;;;16.00;38.93
5380;BME280;2713;42.680;23.310;2024-03-17T10:47:47;95339.16;;;16.06;39.63
5380;BME280;2713;42.680;23.310;2024-03-17T10:50:18;95338.28;;;16.25;39.86
5380;BME280;2713;42.680;23.310;2024-03-17T10:52:47;95336.34;;;15.94;39.05
5380;BME280;2713;42.680;23.310;2024-03-17T10:55:21;95330.72;;;15.91;40.16
5380;BME280;2713;42.680;23.310;2024-03-17T10:57:50;95332.06;;;16.06;42.71
5380;BME280;2713;42.680;23.310;2024-03-17T11:00:18;95327.47;;;16.02;41.72
5380;BME280;2713;42.680;23.310;2024-03-17T11:02:49;95326.63;;;16.08;41.57
5380;BME280;2713;42.680;23.310;2024-03-17T11:05:20;95326.63;;;16.14;40.89
5380;BME280;2713;42.680;23.310;2024-03-17T11:07:49;95325.63;;;16.15;41.30
5380;BME280;2713;42.680;23.310;2024-03-17T11:10:19;95319.28;;;16.36;41.07
5380;BME280;2713;42.680;23.310;2024-03-17T11:12:48;95319.47;;;16.35;39.76
5380;BME280;2713;42.680;23.310;2024-03-17T11:15:48;95312.34;;;16.48;39.79
5380;BME280;2713;42.680;23.310;2024-03-17T11:18:32;95305.38;;;16.29;41.51
5380;BME280;2713;42.680;23.310;2024-03-17T11:21:02;95313.38;;;16.41;42.69
5380;BME280;2713;42.680;23.310;2024-03-17T11:23:35;95311.34;;;16.56;43.19
5380;BME280;2713;42.680;23.310;2024-03-17T11:26:04;95310.56;;;16.42;42.47
5380;BME280;2713;42.680;23.310;2024-03-17T11:28:45;95306.50;;;16.91;41.67
5380;BME280;2713;42.680;23.310;2024-03-17T11:31:38;95293.19;;;17.42;41.38
5380;BME280;2713;42.680;23.310;2024-03-17T11:34:27;95297.38;;;17.49;39.01
5380;BME280;2713;42.680;23.310;2024-03-17T11:36:56;95287.78;;;17.80;37.64
5380;BME280;2713;42.680;23.310;2024-03-17T11:39:52;95296.06;;;18.01;36.74
5380;BME280;2713;42.680;23.310;2024-03-17T11:42:25;95295.75;;;17.91;36.92
5380;BME280;2713;42.680;23.310;2024-03-17T11:44:57;95276.63;;;18.02;36.56
5380;BME280;2713;42.680;23.310;2024-03-17T11:47:33;95280.69;;;17.62;37.41
5380;BME280;2713;42.680;23.310;2024-03-17T11:50:03;95267.91;;;17.16;37.37
5380;BME280;2713;42.680;23.310;2024-03-17T11:52:31;95280.63;;;16.94;37.55
5380;BME280;2713;42.680;23.310;2024-03-17T11:54:58;95272.22;;;17.10;37.62
5380;BME280;2713;42.680;23.310;2024-03-17T11:57:25;95278.47;;;17.09;38.40
5380;BME280;2713;42.680;23.310;2024-03-17T11:59:54;95280.09;;;17.10;38.70
5380;BME280;2713;42.680;23.310;2024-03-17T12:02:21;95265.63;;;17.01;38.56
5380;BME280;2713;42.680;23.310;2024-03-17T12:04:48;95282.06;;;16.90;39.24
5380;BME280;2713;42.680;23.310;2024-03-17T12:07:15;95270.25;;;16.75;38.63
5380;BME280;2713;42.680;23.310;2024-03-17T12:09:45;95277.03;;;16.57;39.11
5380;BME280;2713;42.680;23.310;2024-03-17T12:12:16;95280.97;;;16.73;39.31
5380;BME280;2713;42.680;23.310;2024-03-17T12:14:43;95271.09;;;16.68;39.13
5380;BME280;2713;42.680;23.310;2024-03-17T12:17:10;95276.00;;;16.52;39.89
5380;BME280;2713;42.680;23.310;2024-03-17T12:19:39;95283.88;;;16.52;40.32
5380;BME280;2713;42.680;23.310;2024-03-17T12:22:06;95275.88;;;16.40;40.65
5380;BME280;2713;42.680;23.310;2024-03-17T12:24:33;95277.81;;;16.07;41.71
5380;BME280;2713;42.680;23.310;2024-03-17T12:27:05;95277.22;;;16.05;42.68
5380;BME280;2713;42.680;23.310;2024-03-17T12:29:35;95279.63;;;16.13;43.20
5380;BME280;2713;42.680;23.310;2024-03-17T12:32:02;95276.59;;;16.16;43.75
5380;BME280;2713;42.680;23.310;2024-03-17T12:34:32;95275.38;;;16.18;44.39
5380;BME280;2713;42.680;23.310;2024-03-17T12:37:00;95276.97;;;16.19;44.03
5380;BME280;2713;42.680;23.310;2024-03-17T12:39:28;95277.75;;;16.20;44.57
5380;BME280;2713;42.680;23.310;2024-03-17T12:42:08;95267.28;;;16.20;43.89
5380;BME280;2713;42.680;23.310;2024-03-17T12:44:37;95270.28;;;16.23;43.85
5380;BME280;2713;42.680;23.310;2024-03-17T12:47:04;95267.72;;;16.10;44.48
5380;BME280;2713;42.680;23.310;2024-03-17T12:49:33;95270.41;;;15.91;45.90
5380;BME280;2713;42.680;23.310;2024-03-17T12:52:00;95266.69;;;15.60;46.88
5380;BME280;2713;42.680;23.310;2024-03-17T12:54:27;95263.63;;;15.63;47.39
5380;BME280;2713;42.680;23.310;2024-03-17T12:57:04;95268.66;;;15.71;47.39
5380;BME280;2713;42.680;23.310;2024-03-17T12:59:50;95271.09;;;15.66;48.13
5380;BME280;2713;42.680;23.310;2024-03-17T13:02:41;95266.69;;;15.54;49.11
5380;BME280;2713;42.680;23.310;2024-03-17T13:05:14;95262.44;;;15.59;48.67
5380;BME280;2713;42.680;23.310;2024-03-17T13:07:41;95262.25;;;15.54;48.98
5380;BME280;2713;42.680;23.310;2024-03-17T13:10:08;95257.78;;;15.75;48.71
5380;BME280;2713;42.680;23.310;2024-03-17T13:12:39;95258.97;;;15.79;48.69
5380;BME280;2713;42.680;23.310;2024-03-17T13:15:10;95252.72;;;15.73;48.73
5380;BME280;2713;42.680;23.310;2024-03-17T13:17:38;95258.09;;;15.98;48.91
5380;BME280;2713;42.680;23.310;2024-03-17T13:20:06;95259.69;;;16.05;48.33